• Join FlightAware (Why Join?)
  • Login
  • US Flag 
09:54PM EST


 

Airport Tracker/Info


-or-


 

Live Flight TrackerFlight Track Log ✈ SWA607 ✈ 19-Jan-2014 ✈ KONT - KSJC

Flight Track Log - Related Links

Times and Time Zones

All times are in EST time to prevent confusion due to time zone crossing. See the SWA607 flight status page for this flight to view local times or setup timezone preferences in your user account.

Time Position Orientation Groundspeed Altitude Reporting Facility
EST Latitude Longitude Course Direction KTS MPH feet Rate Location/Type
10:32PM 34.1239 -117.8531 296° West 288 331 10,300  Level Los Angeles Center
10:33PM 34.1808 -117.9367 309° West 316 364 13,300 3,240 Climbing Los Angeles Center
10:34PM 34.2433 -118.0286 309° West 349 402 17,000 3,180 Climbing Los Angeles Center
10:35PM 34.4645 -118.1066 312° West  Level Estimated
10:35PM 34.3094 -118.1247 310° West 370 426 19,900  Level Los Angeles Center
10:36PM 34.3917 -118.2489 309° West 397 457 23,500 2,820 Climbing Los Angeles Center
10:37PM 34.4631 -118.3528 310° West 403 464 25,800 2,100 Climbing Los Angeles Center
10:38PM 34.5564 -118.4833 311° West 429 494 28,300 2,220 Climbing Los Angeles Center
10:39PM 34.6508 -118.5764 321° Northwest 438 504 30,900 2,280 Climbing Los Angeles Center
10:40PM 34.7453 -118.6669 322° Northwest 434 499 33,000 1,500 Climbing Los Angeles Center
10:41PM 34.8386 -118.7581 321° Northwest 432 497 34,000 480 Climbing Los Angeles Center
10:42PM 34.9453 -118.8633 321° Northwest 432 497 34,000  Level Los Angeles Center
10:43PM 35.0253 -118.9678 313° West 425 489 34,000  Level Los Angeles Center
10:44PM 35.0822 -119.0936 299° West 425 489 34,000  Level Los Angeles Center
10:46PM 35.1400 -119.2189 299° West 423 487 34,000  Level Los Angeles Center
10:47PM 35.2003 -119.3406 301° West 421 484 34,000  Level Los Angeles Center
10:48PM 35.2600 -119.4642 301° West 422 486 34,000  Level Los Angeles Center
10:49PM 35.3331 -119.6117 301° West 425 489 34,000  Level Los Angeles Center
10:50PM 35.3931 -119.7364 301° West 426 490 34,000  Level Los Angeles Center
10:51PM 35.4511 -119.8567 301° West 413 475 34,000  Level Los Angeles Center
10:52PM 35.5100 -119.9786 301° West 417 480 34,000  Level Los Angeles Center
10:53PM 35.5689 -120.1017 300° West 421 484 34,000  Level Los Angeles Center
10:54PM 35.6317 -120.2364 300° West 420 483 34,000  Level Los Angeles Center
10:54PM 35.6608 -120.2972 301° West 420 483 34,000  Level Oakland Center
10:55PM 35.7153 -120.4497 294° West 420 483 34,000  Level Oakland Center
10:56PM 35.7069 -120.5892 266° West 416 479 34,000  Level Oakland Center
10:57PM 35.6964 -120.7300 265° West 415 478 34,000 -300 Level Oakland Center
10:58PM 35.7328 -120.8544 290° West 424 488 33,400 -1,140 Descending Oakland Center
10:59PM 35.8386 -120.9208 333° Northwest 426 490 31,700 -1,920 Descending Oakland Center
11:00PM 35.9339 -120.9986 327° Northwest 413 475 29,600 -2,040 Descending Oakland Center
11:01PM 36.0278 -121.0728 327° Northwest 403 464 27,600 -1,980 Descending Oakland Center
11:02PM 36.1172 -121.1461 326° Northwest 391 450 25,600 -1,920 Descending Oakland Center
11:03PM 36.2044 -121.2156 327° Northwest 379 436 23,700 -1,920 Descending Oakland Center
11:04PM 36.2894 -121.2842 327° Northwest 367 422 21,800 -1,920 Descending Oakland Center
11:05PM 36.3733 -121.3522 327° Northwest 361 415 19,900 -2,040 Descending Oakland Center
11:07PM 36.4803 -121.4175 334° Northwest 361 415 17,700 -2,160 Descending Oakland Center
11:08PM 36.5786 -121.4406 349° North 361 415 15,600 -2,160 Descending Oakland Center
11:09PM 36.6756 -121.4669 348° North 357 411 13,400 -2,220 Descending Oakland Center
11:10PM 36.7708 -121.4906 349° North 351 404 11,200 -1,860 Descending Oakland Center
11:11PM 36.8608 -121.5197 345° North 343 395 9,700 -1,200 Descending Oakland Center
11:12PM 36.9400 -121.5425 347° North 314 361 8,800 -1,380 Descending Oakland Center
11:13PM 37.0150 -121.5836 336° Northwest 300 345 7,000 -1,680 Descending Oakland Center
11:14PM 37.0803 -121.6433 324° Northwest 296 341 5,400 -1,020 Descending Oakland Center
11:15PM 37.1428 -121.6972 326° Northwest 280 322 5,000 -540 Descending Oakland Center
11:16PM 37.1936 -121.7461 323° Northwest 248 285 4,400 -840 Descending Oakland Center
11:17PM 37.2392 -121.7975 318° Northwest 232 267 3,300 -1,080 Descending Oakland Center
11:18PM 37.2808 -121.8411 320° Northwest 213 245 2,300 -1,200 Descending Oakland Center
11:19PM 37.3258 -121.8881 320° Northwest 189 217 900 -1,140 Descending Oakland Center
11:20PM 37.3550 -121.9189 320° Northwest 156 180 100 -840 Descending Oakland Center
11:22PM 37.3500 -121.9167 North  Level FlightAware Approximate